Elandra Oak — V7RD5 — position and weather

sailwx.info

Track history (hours):
 
Tides and Currents Weather Stations Pressure Air Temp Water Temp Dewpoint Dewpoint Depression Visibility Wind Speed Wind Dir Waves Ship Positions

Elandra Oak

Last reported at 2017-Nov-01 18:17 UTC. Time now 2017-Nov-18 17:39 UTC.
Position S 24°31' W 046°24'.
Warning: this ship's position is 16 days out of date.

Length 183 m; draft 8.3 m.

Type: Ship. MMSI: 538006775.

Date/timePositionNaut miles runAvg speedWind from/ knotsBaromVisibWave heightAir tempDewpointWater temp
2017-Nov-01 18:17S 24°31' W 046°24'35 0.9
2017-Oct-31 02:43S 23°56' W 046°19'2 8.4
2017-Oct-31 02:30S 23°58' W 046°18'4 7.0
2017-Oct-31 02:00S 24°01' W 046°20'4 8.8
2017-Oct-31 01:30S 24°05' W 046°22'3 5.0
2017-Oct-31 01:00S 24°07' W 046°21'1 1.3
2017-Oct-31 00:28S 24°06' W 046°21'0 0.0
2017-Oct-30 23:55S 24°06' W 046°21'0 0.0
2017-Oct-30 23:28S 24°06' W 046°21'0 0.0
2017-Oct-30 22:55S 24°06' W 046°21'0 0.0
2017-Oct-30 22:28S 24°06' W 046°21'0 0.0
2017-Oct-30 21:55S 24°06' W 046°21'0 0.0
2017-Oct-30 21:25S 24°06' W 046°21'0 0.0
2017-Oct-30 20:49S 24°06' W 046°21'0 0.1
2017-Oct-30 20:28S 24°06' W 046°21'0 0.0
2017-Oct-30 19:55S 24°06' W 046°21'0 0.0
2017-Oct-30 19:25S 24°06' W 046°21'0 0.0
2017-Oct-30 18:58S 24°06' W 046°21'0 0.0
2017-Oct-30 18:28S 24°06' W 046°21'0 0.0
2017-Oct-30 17:58S 24°06' W 046°21'0 0.1
2017-Oct-30 17:25S 24°06' W 046°21'0 0.2
2017-Oct-30 16:55S 24°06' W 046°21'0 0.0
2017-Oct-30 16:25S 24°06' W 046°21'0 0.1
2017-Oct-30 15:55S 24°06' W 046°21'0 0.1
2017-Oct-30 15:28S 24°06' W 046°21'0 0.0
2017-Oct-30 14:55S 24°06' W 046°21'0 0.1
2017-Oct-30 14:25S 24°06' W 046°21'0 0.0
2017-Oct-30 13:25S 24°06' W 046°21'0 0.0
2017-Oct-30 12:55S 24°06' W 046°21'0 0.0
2017-Oct-30 12:19S 24°06' W 046°21'0 0.0
2017-Oct-30 11:58S 24°06' W 046°21'0 0.0
2017-Oct-30 11:19S 24°06' W 046°21'0 0.0
2017-Oct-30 10:55S 24°06' W 046°21'0 0.0
2017-Oct-30 10:25S 24°06' W 046°21'0 0.0
2017-Oct-30 09:59S 24°06' W 046°21'0 0.1
2017-Oct-30 09:26S 24°06' W 046°21'0 0.0
2017-Oct-30 08:59S 24°06' W 046°21'0 0.0
2017-Oct-30 08:23S 24°06' W 046°21'0 0.0
2017-Oct-30 07:53S 24°06' W 046°21'0 0.0
2017-Oct-30 07:23S 24°06' W 046°21'0 0.0
2017-Oct-30 06:59S 24°06' W 046°21'0 0.0
2017-Oct-30 06:29S 24°06' W 046°21'0 0.0
2017-Oct-30 05:53S 24°06' W 046°21'0 0.0
2017-Oct-30 05:29S 24°06' W 046°21'0 0.0
2017-Oct-30 04:59S 24°06' W 046°21'0 0.0
2017-Oct-30 04:29S 24°06' W 046°21'0 0.0
2017-Oct-30 03:59S 24°06' W 046°21'0 0.0
2017-Oct-30 03:23S 24°06' W 046°21'0 0.0
2017-Oct-30 02:59S 24°06' W 046°21'0 0.1
2017-Oct-30 02:29S 24°06' W 046°21'0 0.0
2017-Oct-30 01:59S 24°06' W 046°21'0 0.0
2017-Oct-30 01:29S 24°06' W 046°21'0 0.0
2017-Oct-30 00:59S 24°06' W 046°21'0 0.0
2017-Oct-30 00:29S 24°06' W 046°21'0 0.0
2017-Oct-29 23:59S 24°06' W 046°21'0 0.0
2017-Oct-29 23:29S 24°06' W 046°21'0 0.0
2017-Oct-29 22:59S 24°06' W 046°21'0 0.1
2017-Oct-29 22:23S 24°06' W 046°21'0 0.0
2017-Oct-29 21:59S 24°06' W 046°21'0 0.0
2017-Oct-29 21:29S 24°06' W 046°21'0 0.0
2017-Oct-29 20:59S 24°06' W 046°21'0 0.0
2017-Oct-29 20:29S 24°06' W 046°21'0 0.0
2017-Oct-29 19:59S 24°06' W 046°21'0 0.0
2017-Oct-29 19:29S 24°06' W 046°21'0 0.1
2017-Oct-29 18:50S 24°06' W 046°21'0 0.1
2017-Oct-29 18:29S 24°06' W 046°21'0 0.0
2017-Oct-29 17:59S 24°06' W 046°21'0 0.0
2017-Oct-29 17:29S 24°06' W 046°21'0 0.0
2017-Oct-29 16:56S 24°06' W 046°21'0 0.0
2017-Oct-29 16:29S 24°06' W 046°21'0 0.0
2017-Oct-29 15:59S 24°06' W 046°21'0 0.1
2017-Oct-29 15:29S 24°06' W 046°21'0 0.0
2017-Oct-29 14:59S 24°06' W 046°21'0 0.0
2017-Oct-29 14:29S 24°06' W 046°21'0 0.0
2017-Oct-29 13:59S 24°06' W 046°21'0 0.0
2017-Oct-29 13:29S 24°06' W 046°21'0 0.0
2017-Oct-29 12:59S 24°06' W 046°21'0 0.0
2017-Oct-29 12:23S 24°06' W 046°21'0 0.0
2017-Oct-29 11:53S 24°06' W 046°21'0 0.0
2017-Oct-29 11:29S 24°06' W 046°21'0 0.0
2017-Oct-29 10:53S 24°06' W 046°21'0 0.0
2017-Oct-29 10:29S 24°06' W 046°21'0 0.0
2017-Oct-29 09:59S 24°06' W 046°21'0 0.0
2017-Oct-29 09:29S 24°06' W 046°21'0 0.0
2017-Oct-29 08:59S 24°06' W 046°21'0 0.0
2017-Oct-29 08:26S 24°06' W 046°21'0 0.0
2017-Oct-29 07:59S 24°06' W 046°21'0 0.0
2017-Oct-29 07:29S 24°06' W 046°21'0 0.1
2017-Oct-29 06:59S 24°06' W 046°21'0 0.0
2017-Oct-29 06:17S 24°06' W 046°21'0 0.1
2017-Oct-29 05:59S 24°06' W 046°21'0 0.0
2017-Oct-29 05:29S 24°06' W 046°21'0 0.1
2017-Oct-29 04:59S 24°06' W 046°21'0 0.1
2017-Oct-29 04:29S 24°06' W 046°21'0 0.0
2017-Oct-29 03:47S 24°06' W 046°21'0 0.0
2017-Oct-28 18:59S 24°06' W 046°21'0 0.0
2017-Oct-28 18:23S 24°06' W 046°21'0 0.0
2017-Oct-28 17:59S 24°06' W 046°21'0 0.0
2017-Oct-28 17:29S 24°06' W 046°21'0 0.0
2017-Oct-28 16:59S 24°06' W 046°21'0 0.0
2017-Oct-28 16:29S 24°06' W 046°21'0 0.0
2017-Oct-28 15:59S 24°06' W 046°21'0 0.0
2017-Oct-28 15:23S 24°06' W 046°21'0 0.0
2017-Oct-28 14:59S 24°06' W 046°21'0 0.0
2017-Oct-28 14:23S 24°06' W 046°21'0 0.1
2017-Oct-28 13:59S 24°06' W 046°21'0 0.0
2017-Oct-28 13:29S 24°06' W 046°21'0 0.0
2017-Oct-28 12:59S 24°06' W 046°21'0 0.0
2017-Oct-28 12:29S 24°06' W 046°21'0 0.1
2017-Oct-28 11:59S 24°06' W 046°21'0 0.0
2017-Oct-28 11:23S 24°06' W 046°21'0 0.1
2017-Oct-28 10:59S 24°06' W 046°21'0 0.0
2017-Oct-28 10:29S 24°06' W 046°21'0 0.1
2017-Oct-28 09:53S 24°06' W 046°21'0 0.0
2017-Oct-28 09:29S 24°06' W 046°21'0 0.0
2017-Oct-28 08:59S 24°06' W 046°21'0 0.1
2017-Oct-28 08:29S 24°06' W 046°21'0 0.0
2017-Oct-28 07:59S 24°06' W 046°21'0 0.1
2017-Oct-28 07:29S 24°06' W 046°21'0 0.1
2017-Oct-28 06:53S 24°06' W 046°21'0 0.0
2017-Oct-28 06:29S 24°06' W 046°21'0 0.0
2017-Oct-28 05:53S 24°06' W 046°21'0 0.0
2017-Oct-28 05:29S 24°06' W 046°21'0 0.0
2017-Oct-28 04:59S 24°06' W 046°21'0 0.0
2017-Oct-28 04:20S 24°06' W 046°21'0 0.0
2017-Oct-28 03:59S 24°06' W 046°21'0 0.0
2017-Oct-28 03:29S 24°06' W 046°21'0 0.0
2017-Oct-28 02:59S 24°06' W 046°21'0 0.1
2017-Oct-28 02:29S 24°06' W 046°21'0 0.1
2017-Oct-28 01:53S 24°06' W 046°21'0 0.3
2017-Oct-28 01:29S 24°06' W 046°21'0 0.0
2017-Oct-28 00:41S 24°06' W 046°21'0 0.0
2017-Oct-28 00:29S 24°06' W 046°21'0 0.1
2017-Oct-27 23:53S 24°06' W 046°21'0 0.0
2017-Oct-27 23:29S 24°06' W 046°21'0 0.0
2017-Oct-27 22:59S 24°06' W 046°21'0 0.0
2017-Oct-27 22:29S 24°06' W 046°21'0 0.0
2017-Oct-27 21:59S 24°06' W 046°21'0 0.0
2017-Oct-27 21:29S 24°06' W 046°21'0 0.0
2017-Oct-27 20:59S 24°06' W 046°21'0 0.0
2017-Oct-27 20:29S 24°06' W 046°21'0 0.0
2017-Oct-27 19:47S 24°06' W 046°21'0 0.0
2017-Oct-27 19:29S 24°06' W 046°21'0 0.0
2017-Oct-27 18:59S 24°06' W 046°21'0 0.0
2017-Oct-27 18:29S 24°06' W 046°21'0 0.0
2017-Oct-27 17:59S 24°06' W 046°21'0 0.0
2017-Oct-27 17:29S 24°06' W 046°21'0 0.0
2017-Oct-27 16:59S 24°06' W 046°21'0 0.0
2017-Oct-27 16:20S 24°06' W 046°21'0 0.0
2017-Oct-27 15:59S 24°06' W 046°21'0 0.0
2017-Oct-27 15:29S 24°06' W 046°21'0 0.0
2017-Oct-27 14:41S 24°06' W 046°21'0 0.1
2017-Oct-27 14:29S 24°06' W 046°21'0 0.0
2017-Oct-27 13:59S 24°06' W 046°21'0 0.0
2017-Oct-27 13:29S 24°06' W 046°21'0 0.0
2017-Oct-27 12:59S 24°06' W 046°21'0 0.0
2017-Oct-27 12:29S 24°06' W 046°21'0 0.1
2017-Oct-27 11:59S 24°06' W 046°21'0 0.0
2017-Oct-27 11:29S 24°06' W 046°21'0 0.0
2017-Oct-27 10:59S 24°06' W 046°21'0 0.1
2017-Oct-27 10:23S 24°06' W 046°21'0 0.1
2017-Oct-27 09:59S 24°06' W 046°21'0 0.1
2017-Oct-27 09:23S 24°06' W 046°21'0 0.1
2017-Oct-27 08:59S 24°06' W 046°21'0 0.1
2017-Oct-27 08:29S 24°06' W 046°21'0 0.4
2017-Oct-27 07:59S 24°06' W 046°21'0 0.3
2017-Oct-27 07:29S 24°06' W 046°21'0 0.0
2017-Oct-27 06:59S 24°06' W 046°21'0 0.0
2017-Oct-27 06:29S 24°06' W 046°21'0 0.0
2017-Oct-27 05:56S 24°06' W 046°21'0 0.0
2017-Oct-27 05:29S 24°06' W 046°21'0 0.0
2017-Oct-27 04:59S 24°06' W 046°21'0 0.0
2017-Oct-27 04:29S 24°06' W 046°21'0 0.0
2017-Oct-27 03:59S 24°06' W 046°21'0 0.0
2017-Oct-27 03:29S 24°06' W 046°21'0 0.1
2017-Oct-27 03:00S 24°06' W 046°21'1 2.8
2017-Oct-27 02:30S 24°05' W 046°22'4 8.5
2017-Oct-27 02:00S 24°01' W 046°21'4 7.7
2017-Oct-27 01:31S 23°59' W 046°17'3 0.1
2017-Oct-25 07:39S 23°56' W 046°19'1 6.5
2017-Oct-25 07:30S 23°57' W 046°18'2 4.9
2017-Oct-25 06:59S 23°60' W 046°18'4 7.6
2017-Oct-25 06:30S 24°02' W 046°21'4 7.3
2017-Oct-25 06:00S 24°06' W 046°21'3 5.4
2017-Oct-25 05:30S 24°08' W 046°20'4 7.6
2017-Oct-25 05:00S 24°12' W 046°19'0 0.7
2017-Oct-25 04:28S 24°12' W 046°19'0 0.0
2017-Oct-25 03:55S 24°12' W 046°19'0 0.0
2017-Oct-25 03:22S 24°12' W 046°19'0 0.0
2017-Oct-25 02:55S 24°12' W 046°19'0 0.0
2017-Oct-25 02:25S 24°12' W 046°19'0 0.0
2017-Oct-25 01:58S 24°12' W 046°19'0 0.0
2017-Oct-25 01:25S 24°12' W 046°19'0 0.0
2017-Oct-25 00:58S 24°12' W 046°19'0 0.0
2017-Oct-25 00:25S 24°12' W 046°19'0 0.0
2017-Oct-24 23:58S 24°12' W 046°19'0 0.0
2017-Oct-24 23:25S 24°12' W 046°19'0 0.0
2017-Oct-24 22:55S 24°12' W 046°19'0 0.0
2017-Oct-24 22:22S 24°12' W 046°19'0 0.0
2017-Oct-24 21:58S 24°12' W 046°19'0 0.0
2017-Oct-24 21:25S 24°12' W 046°19'0 0.0
2017-Oct-24 20:55S 24°12' W 046°19'0 0.0
2017-Oct-24 20:28S 24°12' W 046°19'0 0.0
2017-Oct-24 19:55S 24°12' W 046°19'0 0.0
2017-Oct-24 19:19S 24°12' W 046°19'0 0.0
2017-Oct-24 18:55S 24°12' W 046°19'0 0.0
2017-Oct-24 18:25S 24°12' W 046°19'0 0.0
2017-Oct-24 17:58S 24°12' W 046°19'0 0.0
2017-Oct-24 17:25S 24°12' W 046°19'0 0.0
2017-Oct-24 16:34S 24°12' W 046°19'0 0.0
2017-Oct-24 16:25S 24°12' W 046°19'0 0.0
2017-Oct-24 15:55S 24°12' W 046°19'0 0.0
2017-Oct-24 15:28S 24°12' W 046°19'0 0.0
2017-Oct-24 14:58S 24°12' W 046°19'0 0.0
2017-Oct-24 14:28S 24°12' W 046°19'0 0.1
2017-Oct-24 13:55S 24°12' W 046°19'0 0.1
2017-Oct-24 13:19S 24°12' W 046°19'0 0.1
2017-Oct-24 12:55S 24°12' W 046°19'0 0.0
2017-Oct-24 12:25S 24°12' W 046°19'0 0.0
2017-Oct-24 11:49S 24°12' W 046°19'0 0.0
2017-Oct-24 11:28S 24°12' W 046°19'0 0.0
2017-Oct-24 10:55S 24°12' W 046°19'0 0.0
2017-Oct-24 10:28S 24°12' W 046°19'0 0.0
2017-Oct-24 09:58S 24°12' W 046°19'0 0.0
2017-Oct-24 09:25S 24°12' W 046°19'0 0.0
2017-Oct-24 08:58S 24°12' W 046°19'0 0.0
2017-Oct-24 08:25S 24°12' W 046°19'0 0.0
2017-Oct-24 07:55S 24°12' W 046°19'0 0.0
2017-Oct-24 07:28S 24°12' W 046°19'0 0.0
2017-Oct-24 06:55S 24°12' W 046°19'0 0.0
2017-Oct-24 06:25S 24°12' W 046°19'0 0.0
2017-Oct-24 05:55S 24°12' W 046°19'0 0.0
2017-Oct-24 05:28S 24°12' W 046°19'0 0.0
2017-Oct-24 04:58S 24°12' W 046°19'0 0.0
2017-Oct-24 04:25S 24°12' W 046°19'0 0.0
2017-Oct-24 03:58S 24°12' W 046°19'0 0.0
2017-Oct-24 03:28S 24°12' W 046°19'0 0.0
2017-Oct-24 02:55S 24°12' W 046°19'0 0.0
2017-Oct-24 02:19S 24°12' W 046°19'0 0.0
2017-Oct-24 01:58S 24°12' W 046°19'0 0.0
2017-Oct-24 01:25S 24°12' W 046°19'0 0.0
2017-Oct-24 00:58S 24°12' W 046°19'0 0.0
2017-Oct-24 00:25S 24°12' W 046°19'0 0.0
2017-Oct-23 23:58S 24°12' W 046°19'0 0.0
2017-Oct-23 23:28S 24°12' W 046°19'0 0.0
2017-Oct-23 22:43S 24°12' W 046°19'0 0.0
2017-Oct-23 22:28S 24°12' W 046°19'0 0.0
2017-Oct-23 21:58S 24°12' W 046°19'0 0.0
2017-Oct-23 21:25S 24°12' W 046°19'0 0.0
2017-Oct-23 20:58S 24°12' W 046°19'0 0.0
2017-Oct-23 20:25S 24°12' W 046°19'0 0.0
2017-Oct-23 19:59S 24°12' W 046°19'1 1.2
2017-Oct-23 19:30S 24°12' W 046°19'510.9
2017-Oct-23 19:00S 24°16' W 046°23'612.2
2017-Oct-23 18:30S 24°21' W 046°27'612.9
2017-Oct-23 18:00S 24°27' W 046°31'612.9
2017-Oct-23 17:30S 24°32' W 046°35'713.2
2017-Oct-23 17:00S 24°36' W 046°40'712.9
2017-Oct-23 16:30S 24°41' W 046°46'  
Track history (hours):
 
Tides and Currents Weather Stations Pressure Air Temp Water Temp Dewpoint Dewpoint Depression Visibility Wind Speed Wind Dir Waves Ship Positions

Elandra Oak

Last reported at 2017-Nov-01 18:17 UTC. Time now 2017-Nov-18 17:39 UTC.
Position S 24°31' W 046°24'.
Warning: this ship's position is 16 days out of date.

Length 183 m; draft 8.3 m.

Type: Ship. MMSI: 538006775.

Date/timePositionNaut miles runAvg speedWind from/ knotsBaromVisibWave heightAir tempDewpointWater temp
2017-Nov-01 18:17S 24°31' W 046°24'35 0.9
2017-Oct-31 02:43S 23°56' W 046°19'2 8.4
2017-Oct-31 02:30S 23°58' W 046°18'4 7.0
2017-Oct-31 02:00S 24°01' W 046°20'4 8.8
2017-Oct-31 01:30S 24°05' W 046°22'3 5.0
2017-Oct-31 01:00S 24°07' W 046°21'1 1.3
2017-Oct-31 00:28S 24°06' W 046°21'0 0.0
2017-Oct-30 23:55S 24°06' W 046°21'0 0.0
2017-Oct-30 23:28S 24°06' W 046°21'0 0.0
2017-Oct-30 22:55S 24°06' W 046°21'0 0.0
2017-Oct-30 22:28S 24°06' W 046°21'0 0.0
2017-Oct-30 21:55S 24°06' W 046°21'0 0.0
2017-Oct-30 21:25S 24°06' W 046°21'0 0.0
2017-Oct-30 20:49S 24°06' W 046°21'0 0.1
2017-Oct-30 20:28S 24°06' W 046°21'0 0.0
2017-Oct-30 19:55S 24°06' W 046°21'0 0.0
2017-Oct-30 19:25S 24°06' W 046°21'0 0.0
2017-Oct-30 18:58S 24°06' W 046°21'0 0.0
2017-Oct-30 18:28S 24°06' W 046°21'0 0.0
2017-Oct-30 17:58S 24°06' W 046°21'0 0.1
2017-Oct-30 17:25S 24°06' W 046°21'0 0.2
2017-Oct-30 16:55S 24°06' W 046°21'0 0.0
2017-Oct-30 16:25S 24°06' W 046°21'0 0.1
2017-Oct-30 15:55S 24°06' W 046°21'0 0.1
2017-Oct-30 15:28S 24°06' W 046°21'0 0.0
2017-Oct-30 14:55S 24°06' W 046°21'0 0.1
2017-Oct-30 14:25S 24°06' W 046°21'0 0.0
2017-Oct-30 13:25S 24°06' W 046°21'0 0.0
2017-Oct-30 12:55S 24°06' W 046°21'0 0.0
2017-Oct-30 12:19S 24°06' W 046°21'0 0.0
2017-Oct-30 11:58S 24°06' W 046°21'0 0.0
2017-Oct-30 11:19S 24°06' W 046°21'0 0.0
2017-Oct-30 10:55S 24°06' W 046°21'0 0.0
2017-Oct-30 10:25S 24°06' W 046°21'0 0.0
2017-Oct-30 09:59S 24°06' W 046°21'0 0.1
2017-Oct-30 09:26S 24°06' W 046°21'0 0.0
2017-Oct-30 08:59S 24°06' W 046°21'0 0.0
2017-Oct-30 08:23S 24°06' W 046°21'0 0.0
2017-Oct-30 07:53S 24°06' W 046°21'0 0.0
2017-Oct-30 07:23S 24°06' W 046°21'0 0.0
2017-Oct-30 06:59S 24°06' W 046°21'0 0.0
2017-Oct-30 06:29S 24°06' W 046°21'0 0.0
2017-Oct-30 05:53S 24°06' W 046°21'0 0.0
2017-Oct-30 05:29S 24°06' W 046°21'0 0.0
2017-Oct-30 04:59S 24°06' W 046°21'0 0.0
2017-Oct-30 04:29S 24°06' W 046°21'0 0.0
2017-Oct-30 03:59S 24°06' W 046°21'0 0.0
2017-Oct-30 03:23S 24°06' W 046°21'0 0.0
2017-Oct-30 02:59S 24°06' W 046°21'0 0.1
2017-Oct-30 02:29S 24°06' W 046°21'0 0.0
2017-Oct-30 01:59S 24°06' W 046°21'0 0.0
2017-Oct-30 01:29S 24°06' W 046°21'0 0.0
2017-Oct-30 00:59S 24°06' W 046°21'0 0.0
2017-Oct-30 00:29S 24°06' W 046°21'0 0.0
2017-Oct-29 23:59S 24°06' W 046°21'0 0.0
2017-Oct-29 23:29S 24°06' W 046°21'0 0.0
2017-Oct-29 22:59S 24°06' W 046°21'0 0.1
2017-Oct-29 22:23S 24°06' W 046°21'0 0.0
2017-Oct-29 21:59S 24°06' W 046°21'0 0.0
2017-Oct-29 21:29S 24°06' W 046°21'0 0.0
2017-Oct-29 20:59S 24°06' W 046°21'0 0.0
2017-Oct-29 20:29S 24°06' W 046°21'0 0.0
2017-Oct-29 19:59S 24°06' W 046°21'0 0.0
2017-Oct-29 19:29S 24°06' W 046°21'0 0.1
2017-Oct-29 18:50S 24°06' W 046°21'0 0.1
2017-Oct-29 18:29S 24°06' W 046°21'0 0.0
2017-Oct-29 17:59S 24°06' W 046°21'0 0.0
2017-Oct-29 17:29S 24°06' W 046°21'0 0.0
2017-Oct-29 16:56S 24°06' W 046°21'0 0.0
2017-Oct-29 16:29S 24°06' W 046°21'0 0.0
2017-Oct-29 15:59S 24°06' W 046°21'0 0.1
2017-Oct-29 15:29S 24°06' W 046°21'0 0.0
2017-Oct-29 14:59S 24°06' W 046°21'0 0.0
2017-Oct-29 14:29S 24°06' W 046°21'0 0.0
2017-Oct-29 13:59S 24°06' W 046°21'0 0.0
2017-Oct-29 13:29S 24°06' W 046°21'0 0.0
2017-Oct-29 12:59S 24°06' W 046°21'0 0.0
2017-Oct-29 12:23S 24°06' W 046°21'0 0.0
2017-Oct-29 11:53S 24°06' W 046°21'0 0.0
2017-Oct-29 11:29S 24°06' W 046°21'0 0.0
2017-Oct-29 10:53S 24°06' W 046°21'0 0.0
2017-Oct-29 10:29S 24°06' W 046°21'0 0.0
2017-Oct-29 09:59S 24°06' W 046°21'0 0.0
2017-Oct-29 09:29S 24°06' W 046°21'0 0.0
2017-Oct-29 08:59S 24°06' W 046°21'0 0.0
2017-Oct-29 08:26S 24°06' W 046°21'0 0.0
2017-Oct-29 07:59S 24°06' W 046°21'0 0.0
2017-Oct-29 07:29S 24°06' W 046°21'0 0.1
2017-Oct-29 06:59S 24°06' W 046°21'0 0.0
2017-Oct-29 06:17S 24°06' W 046°21'0 0.1
2017-Oct-29 05:59S 24°06' W 046°21'0 0.0
2017-Oct-29 05:29S 24°06' W 046°21'0 0.1
2017-Oct-29 04:59S 24°06' W 046°21'0 0.1
2017-Oct-29 04:29S 24°06' W 046°21'0 0.0
2017-Oct-29 03:47S 24°06' W 046°21'0 0.0
2017-Oct-28 18:59S 24°06' W 046°21'0 0.0
2017-Oct-28 18:23S 24°06' W 046°21'0 0.0
2017-Oct-28 17:59S 24°06' W 046°21'0 0.0
2017-Oct-28 17:29S 24°06' W 046°21'0 0.0
2017-Oct-28 16:59S 24°06' W 046°21'0 0.0
2017-Oct-28 16:29S 24°06' W 046°21'0 0.0
2017-Oct-28 15:59S 24°06' W 046°21'0 0.0
2017-Oct-28 15:23S 24°06' W 046°21'0 0.0
2017-Oct-28 14:59S 24°06' W 046°21'0 0.0
2017-Oct-28 14:23S 24°06' W 046°21'0 0.1
2017-Oct-28 13:59S 24°06' W 046°21'0 0.0
2017-Oct-28 13:29S 24°06' W 046°21'0 0.0
2017-Oct-28 12:59S 24°06' W 046°21'0 0.0
2017-Oct-28 12:29S 24°06' W 046°21'0 0.1
2017-Oct-28 11:59S 24°06' W 046°21'0 0.0
2017-Oct-28 11:23S 24°06' W 046°21'0 0.1
2017-Oct-28 10:59S 24°06' W 046°21'0 0.0
2017-Oct-28 10:29S 24°06' W 046°21'0 0.1
2017-Oct-28 09:53S 24°06' W 046°21'0 0.0
2017-Oct-28 09:29S 24°06' W 046°21'0 0.0
2017-Oct-28 08:59S 24°06' W 046°21'0 0.1
2017-Oct-28 08:29S 24°06' W 046°21'0 0.0
2017-Oct-28 07:59S 24°06' W 046°21'0 0.1
2017-Oct-28 07:29S 24°06' W 046°21'0 0.1
2017-Oct-28 06:53S 24°06' W 046°21'0 0.0
2017-Oct-28 06:29S 24°06' W 046°21'0 0.0
2017-Oct-28 05:53S 24°06' W 046°21'0 0.0
2017-Oct-28 05:29S 24°06' W 046°21'0 0.0
2017-Oct-28 04:59S 24°06' W 046°21'0 0.0
2017-Oct-28 04:20S 24°06' W 046°21'0 0.0
2017-Oct-28 03:59S 24°06' W 046°21'0 0.0
2017-Oct-28 03:29S 24°06' W 046°21'0 0.0
2017-Oct-28 02:59S 24°06' W 046°21'0 0.1
2017-Oct-28 02:29S 24°06' W 046°21'0 0.1
2017-Oct-28 01:53S 24°06' W 046°21'0 0.3
2017-Oct-28 01:29S 24°06' W 046°21'0 0.0
2017-Oct-28 00:41S 24°06' W 046°21'0 0.0
2017-Oct-28 00:29S 24°06' W 046°21'0 0.1
2017-Oct-27 23:53S 24°06' W 046°21'0 0.0
2017-Oct-27 23:29S 24°06' W 046°21'0 0.0
2017-Oct-27 22:59S 24°06' W 046°21'0 0.0
2017-Oct-27 22:29S 24°06' W 046°21'0 0.0
2017-Oct-27 21:59S 24°06' W 046°21'0 0.0
2017-Oct-27 21:29S 24°06' W 046°21'0 0.0
2017-Oct-27 20:59S 24°06' W 046°21'0 0.0
2017-Oct-27 20:29S 24°06' W 046°21'0 0.0
2017-Oct-27 19:47S 24°06' W 046°21'0 0.0
2017-Oct-27 19:29S 24°06' W 046°21'0 0.0
2017-Oct-27 18:59S 24°06' W 046°21'0 0.0
2017-Oct-27 18:29S 24°06' W 046°21'0 0.0
2017-Oct-27 17:59S 24°06' W 046°21'0 0.0
2017-Oct-27 17:29S 24°06' W 046°21'0 0.0
2017-Oct-27 16:59S 24°06' W 046°21'0 0.0
2017-Oct-27 16:20S 24°06' W 046°21'0 0.0
2017-Oct-27 15:59S 24°06' W 046°21'0 0.0
2017-Oct-27 15:29S 24°06' W 046°21'0 0.0
2017-Oct-27 14:41S 24°06' W 046°21'0 0.1
2017-Oct-27 14:29S 24°06' W 046°21'0 0.0
2017-Oct-27 13:59S 24°06' W 046°21'0 0.0
2017-Oct-27 13:29S 24°06' W 046°21'0 0.0
2017-Oct-27 12:59S 24°06' W 046°21'0 0.0
2017-Oct-27 12:29S 24°06' W 046°21'0 0.1
2017-Oct-27 11:59S 24°06' W 046°21'0 0.0
2017-Oct-27 11:29S 24°06' W 046°21'0 0.0
2017-Oct-27 10:59S 24°06' W 046°21'0 0.1
2017-Oct-27 10:23S 24°06' W 046°21'0 0.1
2017-Oct-27 09:59S 24°06' W 046°21'0 0.1
2017-Oct-27 09:23S 24°06' W 046°21'0 0.1
2017-Oct-27 08:59S 24°06' W 046°21'0 0.1
2017-Oct-27 08:29S 24°06' W 046°21'0 0.4
2017-Oct-27 07:59S 24°06' W 046°21'0 0.3
2017-Oct-27 07:29S 24°06' W 046°21'0 0.0
2017-Oct-27 06:59S 24°06' W 046°21'0 0.0
2017-Oct-27 06:29S 24°06' W 046°21'0 0.0
2017-Oct-27 05:56S 24°06' W 046°21'0 0.0
2017-Oct-27 05:29S 24°06' W 046°21'0 0.0
2017-Oct-27 04:59S 24°06' W 046°21'0 0.0
2017-Oct-27 04:29S 24°06' W 046°21'0 0.0
2017-Oct-27 03:59S 24°06' W 046°21'0 0.0
2017-Oct-27 03:29S 24°06' W 046°21'0 0.1
2017-Oct-27 03:00S 24°06' W 046°21'1 2.8
2017-Oct-27 02:30S 24°05' W 046°22'4 8.5
2017-Oct-27 02:00S 24°01' W 046°21'4 7.7
2017-Oct-27 01:31S 23°59' W 046°17'3 0.1
2017-Oct-25 07:39S 23°56' W 046°19'1 6.5
2017-Oct-25 07:30S 23°57' W 046°18'2 4.9
2017-Oct-25 06:59S 23°60' W 046°18'4 7.6
2017-Oct-25 06:30S 24°02' W 046°21'4 7.3
2017-Oct-25 06:00S 24°06' W 046°21'3 5.4
2017-Oct-25 05:30S 24°08' W 046°20'4 7.6
2017-Oct-25 05:00S 24°12' W 046°19'0 0.7
2017-Oct-25 04:28S 24°12' W 046°19'0 0.0
2017-Oct-25 03:55S 24°12' W 046°19'0 0.0
2017-Oct-25 03:22S 24°12' W 046°19'0 0.0
2017-Oct-25 02:55S 24°12' W 046°19'0 0.0
2017-Oct-25 02:25S 24°12' W 046°19'0 0.0
2017-Oct-25 01:58S 24°12' W 046°19'0 0.0
2017-Oct-25 01:25S 24°12' W 046°19'0 0.0
2017-Oct-25 00:58S 24°12' W 046°19'0 0.0
2017-Oct-25 00:25S 24°12' W 046°19'0 0.0
2017-Oct-24 23:58S 24°12' W 046°19'0 0.0
2017-Oct-24 23:25S 24°12' W 046°19'0 0.0
2017-Oct-24 22:55S 24°12' W 046°19'0 0.0
2017-Oct-24 22:22S 24°12' W 046°19'0 0.0
2017-Oct-24 21:58S 24°12' W 046°19'0 0.0
2017-Oct-24 21:25S 24°12' W 046°19'0 0.0
2017-Oct-24 20:55S 24°12' W 046°19'0 0.0
2017-Oct-24 20:28S 24°12' W 046°19'0 0.0
2017-Oct-24 19:55S 24°12' W 046°19'0 0.0
2017-Oct-24 19:19S 24°12' W 046°19'0 0.0
2017-Oct-24 18:55S 24°12' W 046°19'0 0.0
2017-Oct-24 18:25S 24°12' W 046°19'0 0.0
2017-Oct-24 17:58S 24°12' W 046°19'0 0.0
2017-Oct-24 17:25S 24°12' W 046°19'0 0.0
2017-Oct-24 16:34S 24°12' W 046°19'0 0.0
2017-Oct-24 16:25S 24°12' W 046°19'0 0.0
2017-Oct-24 15:55S 24°12' W 046°19'0 0.0
2017-Oct-24 15:28S 24°12' W 046°19'0 0.0
2017-Oct-24 14:58S 24°12' W 046°19'0 0.0
2017-Oct-24 14:28S 24°12' W 046°19'0 0.1
2017-Oct-24 13:55S 24°12' W 046°19'0 0.1
2017-Oct-24 13:19S 24°12' W 046°19'0 0.1
2017-Oct-24 12:55S 24°12' W 046°19'0 0.0
2017-Oct-24 12:25S 24°12' W 046°19'0 0.0
2017-Oct-24 11:49S 24°12' W 046°19'0 0.0
2017-Oct-24 11:28S 24°12' W 046°19'0 0.0
2017-Oct-24 10:55S 24°12' W 046°19'0 0.0
2017-Oct-24 10:28S 24°12' W 046°19'0 0.0
2017-Oct-24 09:58S 24°12' W 046°19'0 0.0
2017-Oct-24 09:25S 24°12' W 046°19'0 0.0
2017-Oct-24 08:58S 24°12' W 046°19'0 0.0
2017-Oct-24 08:25S 24°12' W 046°19'0 0.0
2017-Oct-24 07:55S 24°12' W 046°19'0 0.0
2017-Oct-24 07:28S 24°12' W 046°19'0 0.0
2017-Oct-24 06:55S 24°12' W 046°19'0 0.0
2017-Oct-24 06:25S 24°12' W 046°19'0 0.0
2017-Oct-24 05:55S 24°12' W 046°19'0 0.0
2017-Oct-24 05:28S 24°12' W 046°19'0 0.0
2017-Oct-24 04:58S 24°12' W 046°19'0 0.0
2017-Oct-24 04:25S 24°12' W 046°19'0 0.0
2017-Oct-24 03:58S 24°12' W 046°19'0 0.0
2017-Oct-24 03:28S 24°12' W 046°19'0 0.0
2017-Oct-24 02:55S 24°12' W 046°19'0 0.0
2017-Oct-24 02:19S 24°12' W 046°19'0 0.0
2017-Oct-24 01:58S 24°12' W 046°19'0 0.0
2017-Oct-24 01:25S 24°12' W 046°19'0 0.0
2017-Oct-24 00:58S 24°12' W 046°19'0 0.0
2017-Oct-24 00:25S 24°12' W 046°19'0 0.0
2017-Oct-23 23:58S 24°12' W 046°19'0 0.0
2017-Oct-23 23:28S 24°12' W 046°19'0 0.0
2017-Oct-23 22:43S 24°12' W 046°19'0 0.0
2017-Oct-23 22:28S 24°12' W 046°19'0 0.0
2017-Oct-23 21:58S 24°12' W 046°19'0 0.0
2017-Oct-23 21:25S 24°12' W 046°19'0 0.0
2017-Oct-23 20:58S 24°12' W 046°19'0 0.0
2017-Oct-23 20:25S 24°12' W 046°19'0 0.0
2017-Oct-23 19:59S 24°12' W 046°19'1 1.2
2017-Oct-23 19:30S 24°12' W 046°19'510.9
2017-Oct-23 19:00S 24°16' W 046°23'612.2
2017-Oct-23 18:30S 24°21' W 046°27'612.9
2017-Oct-23 18:00S 24°27' W 046°31'612.9
2017-Oct-23 17:30S 24°32' W 046°35'713.2
2017-Oct-23 17:00S 24°36' W 046°40'712.9
2017-Oct-23 16:30S 24°41' W 046°46'  

Dump ship's entire track history